createdAt,value
2023-03-29T00:01:35.774Z,-2.49
2023-03-29T00:04:22.209Z,-2.48
2023-03-29T00:07:07.555Z,-2.48
2023-03-29T00:09:53.181Z,-2.48
2023-03-29T00:12:40.604Z,-2.50
2023-03-29T00:15:26.203Z,-2.51
2023-03-29T00:18:11.711Z,-2.50
2023-03-29T00:20:59.107Z,-2.47
2023-03-29T00:23:44.690Z,-2.45
2023-03-29T00:26:29.935Z,-2.40
2023-03-29T00:29:15.153Z,-2.37
2023-03-29T00:32:00.652Z,-2.36
2023-03-29T00:34:46.169Z,-2.35
2023-03-29T00:37:31.928Z,-2.34
2023-03-29T00:40:17.521Z,-2.30
2023-03-29T00:43:03.308Z,-2.27
2023-03-29T00:45:48.638Z,-2.22
2023-03-29T00:48:34.169Z,-2.20
2023-03-29T00:51:23.076Z,-2.16
2023-03-29T00:54:14.917Z,-2.13
2023-03-29T00:57:04.077Z,-2.09
2023-03-29T00:59:51.986Z,-2.06
2023-03-29T01:02:39.795Z,-2.03
2023-03-29T01:05:40.543Z,-2.01
2023-03-29T01:08:32.174Z,-1.99
2023-03-29T01:11:23.636Z,-1.96
2023-03-29T01:14:18.665Z,-1.90
2023-03-29T01:17:05.694Z,-1.88
2023-03-29T01:20:10.577Z,-1.85
2023-03-29T01:23:21.354Z,-1.83
2023-03-29T01:26:19.659Z,-1.81
2023-03-29T01:29:18.016Z,-1.81
2023-03-29T01:32:06.956Z,-1.80
2023-03-29T01:35:11.819Z,-1.80
2023-03-29T01:38:13.408Z,-1.79
2023-03-29T01:40:58.971Z,-1.77
2023-03-29T01:43:51.496Z,-1.74
2023-03-29T01:46:53.346Z,-1.72
2023-03-29T01:50:00.595Z,-1.69
2023-03-29T01:52:57.321Z,-1.65
2023-03-29T01:55:50.042Z,-1.63
2023-03-29T01:58:39.857Z,-1.59
2023-03-29T02:01:30.139Z,-1.60
2023-03-29T02:04:21.069Z,-1.59
2023-03-29T02:07:10.586Z,-1.58
2023-03-29T02:09:58.316Z,-1.57
2023-03-29T02:12:43.708Z,-1.55
2023-03-29T02:15:29.244Z,-1.51
2023-03-29T02:18:17.789Z,-1.49
2023-03-29T02:21:04.208Z,-1.47
2023-03-29T02:23:54.702Z,-1.43
2023-03-29T02:26:40.834Z,-1.43
2023-03-29T02:29:26.346Z,-1.42
2023-03-29T02:32:28.577Z,-1.40
2023-03-29T02:35:20.725Z,-1.37
2023-03-29T02:38:10.537Z,-1.34
2023-03-29T02:40:57.862Z,-1.31
2023-03-29T02:43:46.308Z,-1.28
2023-03-29T02:46:31.751Z,-1.24
2023-03-29T02:49:17.159Z,-1.21
2023-03-29T02:52:10.932Z,-1.17
2023-03-29T02:54:57.390Z,-1.16
2023-03-29T02:57:43.903Z,-1.14
2023-03-29T03:00:32.452Z,-1.13
2023-03-29T03:03:18.008Z,-1.10
2023-03-29T03:06:06.846Z,-1.06
2023-03-29T03:08:52.701Z,-1.03
2023-03-29T03:11:38.308Z,-0.99
2023-03-29T03:14:28.219Z,-0.95
2023-03-29T03:17:15.580Z,-0.91
2023-03-29T03:20:00.925Z,-0.87
2023-03-29T03:22:49.808Z,-0.84
2023-03-29T03:25:35.889Z,-0.79
2023-03-29T03:28:22.198Z,-0.77
2023-03-29T03:31:07.850Z,-0.75
2023-03-29T03:34:23.092Z,-0.73
2023-03-29T03:37:16.019Z,-0.69
2023-03-29T03:40:01.692Z,-0.68
2023-03-29T03:42:48.686Z,-0.64
2023-03-29T03:45:34.347Z,-0.61
2023-03-29T03:48:27.991Z,-0.58
2023-03-29T03:51:36.137Z,-0.58
2023-03-29T03:54:21.855Z,-0.56
2023-03-29T03:57:39.882Z,-0.54
2023-03-29T04:00:31.022Z,-0.52
2023-03-29T04:03:44.899Z,-0.51
2023-03-29T04:06:33.172Z,-0.49
2023-03-29T04:09:37.769Z,-0.46
2023-03-29T04:12:46.715Z,-0.45
2023-03-29T04:15:33.581Z,-0.45
2023-03-29T04:18:24.443Z,-0.42
2023-03-29T04:21:14.246Z,-0.40
2023-03-29T04:23:59.919Z,-0.37
2023-03-29T04:26:47.774Z,-0.35
2023-03-29T04:29:39.946Z,-0.33
2023-03-29T04:32:36.952Z,-0.33
2023-03-29T04:35:27.235Z,-0.31
2023-03-29T04:38:13.108Z,-0.33
2023-03-29T04:41:01.278Z,-0.33
2023-03-29T04:44:09.946Z,-0.30
2023-03-29T04:46:55.659Z,-0.29
2023-03-29T04:50:08.469Z,-0.29
2023-03-29T04:53:00.342Z,-0.26
2023-03-29T04:55:47.867Z,-0.27
2023-03-29T04:58:42.248Z,-0.26
2023-03-29T05:01:29.067Z,-0.25
2023-03-29T05:04:18.423Z,-0.26
2023-03-29T05:07:19.243Z,-0.24
2023-03-29T05:10:06.811Z,-0.24
2023-03-29T05:12:54.215Z,-0.24
2023-03-29T05:15:42.014Z,-0.23
2023-03-29T05:18:29.960Z,-0.21
2023-03-29T05:21:16.000Z,-0.21
2023-03-29T05:24:04.784Z,-0.18
2023-03-29T05:27:09.936Z,-0.16
2023-03-29T05:29:56.509Z,-0.15
2023-03-29T05:32:54.695Z,-0.16
2023-03-29T05:35:43.806Z,-0.15
2023-03-29T05:38:30.245Z,-0.14
2023-03-29T05:41:17.812Z,-0.13
2023-03-29T05:44:15.582Z,-0.12
2023-03-29T05:47:03.158Z,-0.12
2023-03-29T05:49:48.388Z,-0.11
2023-03-29T05:52:38.897Z,-0.09
2023-03-29T05:55:24.774Z,-0.08
2023-03-29T05:58:13.015Z,-0.06
2023-03-29T06:01:00.505Z,-0.03
2023-03-29T06:04:09.331Z,-0.01
2023-03-29T06:07:02.178Z,0.04
2023-03-29T06:09:48.526Z,0.06
2023-03-29T06:12:36.466Z,0.08
2023-03-29T06:15:25.661Z,0.10
2023-03-29T06:18:24.628Z,0.11
2023-03-29T06:21:10.814Z,0.11
2023-03-29T06:23:56.512Z,0.12
2023-03-29T06:26:42.857Z,0.14
2023-03-29T06:29:28.297Z,0.18
2023-03-29T06:32:13.476Z,0.23
2023-03-29T06:35:18.852Z,0.25
2023-03-29T06:38:11.311Z,0.28
2023-03-29T06:41:15.093Z,0.35
2023-03-29T06:44:20.858Z,0.38
2023-03-29T06:47:17.586Z,0.43
2023-03-29T06:50:03.635Z,0.47
2023-03-29T06:52:55.368Z,0.53
2023-03-29T06:55:42.142Z,0.58
2023-03-29T06:58:54.516Z,0.61
2023-03-29T07:01:49.376Z,0.64
2023-03-29T07:04:42.646Z,0.68
2023-03-29T07:08:11.812Z,0.74
2023-03-29T07:11:13.141Z,0.85
2023-03-29T07:14:21.344Z,0.93
2023-03-29T07:17:06.861Z,1.02
2023-03-29T07:19:56.249Z,1.09
2023-03-29T07:22:58.019Z,1.18
2023-03-29T07:25:43.546Z,1.23
2023-03-29T07:28:29.921Z,1.32
2023-03-29T07:31:15.643Z,1.41
2023-03-29T07:34:06.680Z,1.53
2023-03-29T07:36:52.681Z,1.64
2023-03-29T07:39:38.058Z,1.76
2023-03-29T07:42:46.758Z,1.86
2023-03-29T07:45:36.993Z,1.95
2023-03-29T07:48:27.076Z,2.04
2023-03-29T07:51:18.080Z,2.14
2023-03-29T07:54:06.808Z,2.22
2023-03-29T07:57:09.510Z,2.35
2023-03-29T08:00:00.427Z,2.45
2023-03-29T08:02:58.807Z,2.59
2023-03-29T08:05:45.051Z,2.69
2023-03-29T08:08:33.815Z,2.80
2023-03-29T08:11:24.828Z,2.89
2023-03-29T08:14:23.745Z,2.99
2023-03-29T08:17:15.900Z,3.08
2023-03-29T08:20:09.589Z,3.10
2023-03-29T08:22:57.357Z,3.15
2023-03-29T08:26:05.484Z,3.27
2023-03-29T08:28:51.556Z,3.39
2023-03-29T08:31:38.589Z,3.46
2023-03-29T08:34:23.761Z,3.57
2023-03-29T08:37:28.191Z,3.67
2023-03-29T08:40:26.623Z,3.79
2023-03-29T08:43:59.843Z,3.91
2023-03-29T08:47:17.405Z,4.08
2023-03-29T08:50:05.444Z,4.19
2023-03-29T08:53:07.088Z,4.27
2023-03-29T08:56:16.772Z,4.36
2023-03-29T08:59:26.725Z,4.46
2023-03-29T09:02:22.307Z,4.48
2023-03-29T09:05:25.785Z,4.54
2023-03-29T09:08:22.668Z,4.66
2023-03-29T09:11:36.097Z,4.79
2023-03-29T09:14:39.032Z,4.87
2023-03-29T09:17:31.833Z,4.97
2023-03-29T09:20:38.452Z,5.10
2023-03-29T09:23:47.640Z,5.25
2023-03-29T09:27:05.303Z,5.42
2023-03-29T09:30:15.341Z,5.57
2023-03-29T09:33:27.573Z,5.68
2023-03-29T09:37:02.995Z,5.78
2023-03-29T09:39:49.366Z,5.94
2023-03-29T09:42:38.720Z,6.10
2023-03-29T09:45:24.166Z,6.24
2023-03-29T09:48:15.868Z,6.41
2023-03-29T09:51:08.660Z,6.61
2023-03-29T09:53:57.434Z,6.77
2023-03-29T09:57:03.376Z,6.99
2023-03-29T09:59:50.788Z,7.18
2023-03-29T10:02:36.842Z,7.37
2023-03-29T10:05:26.006Z,7.55
2023-03-29T10:08:19.881Z,7.74
2023-03-29T10:11:20.265Z,7.92
2023-03-29T10:14:12.727Z,8.04
2023-03-29T10:16:58.497Z,8.20
2023-03-29T10:19:51.584Z,8.31
2023-03-29T10:22:38.071Z,8.37
2023-03-29T10:25:32.824Z,8.47
2023-03-29T10:28:21.239Z,8.59
2023-03-29T10:31:08.206Z,8.71
2023-03-29T10:33:57.152Z,8.77
2023-03-29T10:36:51.236Z,8.84
2023-03-29T10:39:36.873Z,8.92
2023-03-29T10:42:25.305Z,9.02
2023-03-29T10:45:37.790Z,9.07
2023-03-29T10:48:31.226Z,9.28
2023-03-29T10:51:18.220Z,9.43
2023-03-29T10:54:05.302Z,9.54
2023-03-29T10:56:56.151Z,9.58
2023-03-29T10:59:53.066Z,9.52
2023-03-29T11:02:51.804Z,9.55
2023-03-29T11:05:57.407Z,9.54
2023-03-29T11:08:52.762Z,9.56
2023-03-29T11:12:15.469Z,9.64
2023-03-29T11:15:47.023Z,9.67
2023-03-29T11:18:57.759Z,9.73
2023-03-29T11:21:52.188Z,9.86
2023-03-29T11:24:52.983Z,9.99
2023-03-29T11:27:53.233Z,10.07
2023-03-29T11:30:51.253Z,10.22
2023-03-29T11:34:03.843Z,10.33
2023-03-29T11:37:20.409Z,10.33
2023-03-29T11:40:27.981Z,10.33
2023-03-29T11:43:29.116Z,10.38
2023-03-29T11:46:21.881Z,10.44
2023-03-29T11:49:14.912Z,10.48
2023-03-29T11:52:11.837Z,10.48
2023-03-29T11:55:05.604Z,10.50
2023-03-29T11:57:56.898Z,10.51
2023-03-29T12:00:55.349Z,10.47
2023-03-29T12:03:48.313Z,10.55
2023-03-29T12:06:58.153Z,10.65
2023-03-29T12:09:53.772Z,10.76
2023-03-29T12:12:55.287Z,10.81
2023-03-29T12:15:50.819Z,10.97
2023-03-29T12:18:46.581Z,11.12
2023-03-29T12:21:34.914Z,11.22
2023-03-29T12:24:21.225Z,11.30
2023-03-29T12:27:31.904Z,11.38
2023-03-29T12:30:47.022Z,11.48
2023-03-29T12:34:04.907Z,11.45
2023-03-29T12:37:15.001Z,11.39
2023-03-29T12:40:22.949Z,11.31
2023-03-29T12:43:33.117Z,11.22
2023-03-29T12:46:37.859Z,11.23
2023-03-29T12:49:35.221Z,11.32
2023-03-29T12:52:30.576Z,11.42
2023-03-29T12:55:32.418Z,11.56
2023-03-29T12:58:39.853Z,11.71
2023-03-29T13:01:32.045Z,11.79
2023-03-29T13:04:22.440Z,11.86
2023-03-29T13:07:15.095Z,11.89
2023-03-29T13:10:09.582Z,11.90
2023-03-29T13:12:55.504Z,11.90
2023-03-29T13:15:43.302Z,11.96
2023-03-29T13:18:38.970Z,12.02
2023-03-29T13:21:35.675Z,12.09
2023-03-29T13:24:31.410Z,12.16
2023-03-29T13:27:26.293Z,12.22
2023-03-29T13:30:24.732Z,12.18
2023-03-29T13:33:22.563Z,12.09
2023-03-29T13:36:39.266Z,12.07
2023-03-29T13:39:29.610Z,12.07
2023-03-29T13:42:25.695Z,12.13
2023-03-29T13:45:23.705Z,12.16
2023-03-29T13:48:29.373Z,12.18
2023-03-29T13:51:18.099Z,12.13
2023-03-29T13:54:13.133Z,12.17
2023-03-29T13:57:05.025Z,12.28
2023-03-29T14:00:15.535Z,12.33
2023-03-29T14:03:07.537Z,12.30
2023-03-29T14:05:58.672Z,12.25
2023-03-29T14:08:45.412Z,12.23
2023-03-29T14:11:32.076Z,12.28
2023-03-29T14:14:24.110Z,12.39
2023-03-29T14:17:16.906Z,12.55
2023-03-29T14:20:08.932Z,12.59
2023-03-29T14:22:54.520Z,12.98
2023-03-29T14:25:40.463Z,13.33
2023-03-29T14:28:28.919Z,13.35
2023-03-29T14:31:23.127Z,13.68
2023-03-29T14:34:17.085Z,14.06
2023-03-29T14:37:03.215Z,14.18
2023-03-29T14:39:49.454Z,14.51
2023-03-29T14:42:37.636Z,14.76
2023-03-29T14:45:26.328Z,14.76
2023-03-29T14:48:14.293Z,14.82
2023-03-29T14:51:00.646Z,15.08
2023-03-29T14:53:48.395Z,15.57
2023-03-29T14:56:35.439Z,16.10
2023-03-29T14:59:25.816Z,16.37
2023-03-29T15:02:28.197Z,16.19
2023-03-29T15:05:34.846Z,15.63
2023-03-29T15:08:32.318Z,14.96
2023-03-29T15:11:28.994Z,14.42
2023-03-29T15:14:17.244Z,14.09
2023-03-29T15:17:22.927Z,13.71
2023-03-29T15:20:33.739Z,13.45
2023-03-29T15:23:22.878Z,13.19
2023-03-29T15:26:21.657Z,13.03
2023-03-29T15:29:13.516Z,12.75
2023-03-29T15:31:59.339Z,12.54
2023-03-29T15:34:45.125Z,12.38
2023-03-29T15:37:31.078Z,12.19
2023-03-29T15:40:19.833Z,12.02
2023-03-29T15:43:05.987Z,11.87
2023-03-29T15:45:51.765Z,11.77
2023-03-29T15:48:37.505Z,11.69
2023-03-29T15:51:22.936Z,11.62
2023-03-29T15:54:09.225Z,11.58
2023-03-29T15:57:03.590Z,11.54
2023-03-29T15:59:49.169Z,11.47
2023-03-29T16:02:35.318Z,11.38
2023-03-29T16:05:20.808Z,11.26
2023-03-29T16:08:06.866Z,11.15
2023-03-29T16:10:52.412Z,11.06
2023-03-29T16:13:37.845Z,10.96
2023-03-29T16:16:23.955Z,10.88
2023-03-29T16:19:09.560Z,10.81
2023-03-29T16:21:55.769Z,10.74
2023-03-29T16:24:41.527Z,10.64
2023-03-29T16:27:27.017Z,10.54
2023-03-29T16:30:13.597Z,10.48
2023-03-29T16:32:58.838Z,10.44
2023-03-29T16:35:44.128Z,10.40
2023-03-29T16:38:29.340Z,10.36
2023-03-29T16:41:16.479Z,10.32
2023-03-29T16:44:02.024Z,10.26
2023-03-29T16:47:55.651Z,10.20
2023-03-29T16:50:41.074Z,10.17
2023-03-29T16:53:28.560Z,10.15
2023-03-29T16:56:14.742Z,10.14
2023-03-29T16:59:00.904Z,10.09
2023-03-29T17:01:46.846Z,10.05
2023-03-29T17:04:32.628Z,10.01
2023-03-29T17:07:17.937Z,9.97
2023-03-29T17:10:07.132Z,9.95
2023-03-29T17:12:52.291Z,9.93
2023-03-29T17:15:39.556Z,9.90
2023-03-29T17:18:26.715Z,9.87
2023-03-29T17:21:11.951Z,9.85
2023-03-29T17:23:57.585Z,9.82
2023-03-29T17:26:45.708Z,9.80
2023-03-29T17:29:31.513Z,9.77
2023-03-29T17:32:17.105Z,9.73
2023-03-29T17:35:03.334Z,9.68
2023-03-29T17:37:49.193Z,9.64
2023-03-29T17:40:34.788Z,9.61
2023-03-29T17:43:20.146Z,9.58
2023-03-29T17:46:06.717Z,9.55
2023-03-29T17:48:52.251Z,9.54
2023-03-29T17:51:37.778Z,9.52
2023-03-29T17:54:23.676Z,9.52
2023-03-29T17:57:08.912Z,9.49
2023-03-29T17:59:54.761Z,9.46
2023-03-29T18:02:41.493Z,9.45
2023-03-29T18:05:27.054Z,9.43
2023-03-29T18:08:13.658Z,9.43
2023-03-29T18:11:11.692Z,9.43
2023-03-29T18:14:01.058Z,9.45
2023-03-29T18:16:46.795Z,9.45
2023-03-29T18:19:32.000Z,9.44
2023-03-29T18:22:18.683Z,9.45
2023-03-29T18:25:05.889Z,9.42
2023-03-29T18:27:51.399Z,9.40
2023-03-29T18:30:37.014Z,9.39
2023-03-29T18:33:22.880Z,9.37
2023-03-29T18:36:11.879Z,9.35
2023-03-29T18:39:05.488Z,9.30
2023-03-29T18:41:51.175Z,9.26
2023-03-29T18:44:36.652Z,9.22
2023-03-29T18:47:22.289Z,9.18
2023-03-29T18:50:09.443Z,9.14
2023-03-29T18:52:54.753Z,9.09
2023-03-29T18:55:43.819Z,9.03
2023-03-29T18:58:29.802Z,8.98
2023-03-29T19:01:15.732Z,8.95
2023-03-29T19:04:01.169Z,8.90
2023-03-29T19:06:47.510Z,8.87
2023-03-29T19:09:32.771Z,8.77
2023-03-29T19:12:18.101Z,8.69
2023-03-29T19:15:03.807Z,8.60
2023-03-29T19:17:49.457Z,8.56
2023-03-29T19:20:36.176Z,8.51
2023-03-29T19:23:25.111Z,8.45
2023-03-29T19:26:11.586Z,8.43
2023-03-29T19:28:57.135Z,8.43
2023-03-29T19:31:44.185Z,8.40
2023-03-29T19:34:30.595Z,8.33
2023-03-29T19:37:17.598Z,8.24
2023-03-29T19:40:06.523Z,8.22
2023-03-29T19:42:53.480Z,8.19
2023-03-29T19:45:39.241Z,8.16
2023-03-29T19:48:24.808Z,8.12
2023-03-29T19:51:10.438Z,8.09
2023-03-29T19:53:56.335Z,8.04
2023-03-29T19:56:42.971Z,8.01
2023-03-29T19:59:28.579Z,7.98
2023-03-29T20:02:14.945Z,7.96
2023-03-29T20:05:01.629Z,7.92
2023-03-29T20:07:47.280Z,7.88
2023-03-29T20:10:33.259Z,7.82
2023-03-29T20:13:31.498Z,7.77
2023-03-29T20:16:24.468Z,7.67
2023-03-29T20:19:10.393Z,7.60
2023-03-29T20:21:57.303Z,7.54
2023-03-29T20:24:42.872Z,7.48
2023-03-29T20:27:29.420Z,7.39
2023-03-29T20:30:14.801Z,7.33
2023-03-29T20:33:00.353Z,7.27
2023-03-29T20:35:47.229Z,7.18
2023-03-29T20:38:33.139Z,7.10
2023-03-29T20:41:19.705Z,7.03
2023-03-29T20:44:05.679Z,6.96
2023-03-29T20:47:03.933Z,6.88
2023-03-29T20:49:54.314Z,6.80
2023-03-29T20:52:40.105Z,6.67
2023-03-29T20:55:25.576Z,6.59
2023-03-29T20:58:11.004Z,6.51
2023-03-29T21:00:58.854Z,6.49
2023-03-29T21:03:44.364Z,6.47
2023-03-29T21:06:30.203Z,6.46
2023-03-29T21:09:17.092Z,6.41
2023-03-29T21:12:02.786Z,6.40
2023-03-29T21:14:48.153Z,6.32
2023-03-29T21:17:33.927Z,6.25
2023-03-29T21:20:19.961Z,6.19
2023-03-29T21:23:05.216Z,6.17
2023-03-29T21:25:50.839Z,6.15
2023-03-29T21:28:37.583Z,6.15
2023-03-29T21:31:22.788Z,6.15
2023-03-29T21:34:08.152Z,6.12
2023-03-29T21:36:53.520Z,6.09
2023-03-29T21:39:38.809Z,6.10
2023-03-29T21:42:24.236Z,6.13
2023-03-29T21:45:10.388Z,6.15
2023-03-29T21:47:56.578Z,6.17
2023-03-29T21:50:42.078Z,6.20
2023-03-29T21:53:27.511Z,6.24
2023-03-29T21:56:13.005Z,6.28
2023-03-29T21:58:58.449Z,6.31
2023-03-29T22:01:44.418Z,6.31
2023-03-29T22:04:37.078Z,6.32
2023-03-29T22:07:26.474Z,6.35
2023-03-29T22:10:12.533Z,6.37
2023-03-29T22:12:58.308Z,6.40
2023-03-29T22:15:43.690Z,6.43
2023-03-29T22:18:42.060Z,6.48
2023-03-29T22:21:31.095Z,6.51
2023-03-29T22:24:16.791Z,6.58
2023-03-29T22:27:02.650Z,6.66
2023-03-29T22:29:48.389Z,6.72
2023-03-29T22:32:33.844Z,6.78
2023-03-29T22:35:19.127Z,6.84
2023-03-29T22:38:04.331Z,6.92
2023-03-29T22:40:49.757Z,6.97
2023-03-29T22:43:36.593Z,7.02
2023-03-29T22:46:23.165Z,7.09
2023-03-29T22:49:08.521Z,7.28
2023-03-29T22:51:53.930Z,7.55
2023-03-29T22:54:39.922Z,7.83
2023-03-29T22:57:25.119Z,8.16
2023-03-29T23:00:11.026Z,8.44
2023-03-29T23:02:57.004Z,8.74
2023-03-29T23:05:42.390Z,8.97
2023-03-29T23:08:28.769Z,9.09
2023-03-29T23:11:14.017Z,9.17
2023-03-29T23:13:59.390Z,9.24
2023-03-29T23:16:46.103Z,9.32
2023-03-29T23:19:31.621Z,9.38
2023-03-29T23:22:17.168Z,9.41
2023-03-29T23:25:02.518Z,9.50
2023-03-29T23:27:47.904Z,9.55
2023-03-29T23:30:37.065Z,9.59
2023-03-29T23:33:25.586Z,9.62
2023-03-29T23:36:16.508Z,9.63
2023-03-29T23:39:02.002Z,9.61
2023-03-29T23:41:47.738Z,9.58
2023-03-29T23:44:33.178Z,9.55
2023-03-29T23:47:18.448Z,9.54
2023-03-29T23:50:04.364Z,9.49
2023-03-29T23:52:51.571Z,9.45
2023-03-29T23:55:37.355Z,9.40
2023-03-29T23:58:22.638Z,9.35
